Time;durP1;ratioP1;P1;durP2;ratioP2;P2;SDS_P1;SDS_P2;PMS_P1;PMS_P2;Temp;Humidity;BMP_temperature;BMP_pressure;BME280_temperature;BME280_humidity;BME280_pressure;Samples;Min_cycle;Max_cycle;Signal;HPM_P1;HPM_P2
2023/11/08 00:00:55;;;;;;;1999.90;999.90;;;;;;;12.17;81.98;100936.72;10378606;28;20053;-65
2023/11/08 00:05:57;;;;;;;1999.90;999.90;;;;;;;12.15;82.14;100948.25;10377748;28;20437;-65
2023/11/08 00:10:59;;;;;;;1999.90;999.90;;;;;;;11.97;82.24;100952.84;10377490;28;20053;-65
2023/11/08 00:16:02;;;;;;;1999.90;999.90;;;;;;;12.14;85.04;100957.03;10378053;28;20137;-65
2023/11/08 00:21:05;;;;;;;1999.90;999.90;;;;;;;12.06;82.53;100953.13;10377847;28;20049;-65
2023/11/08 00:26:08;;;;;;;1999.90;999.90;;;;;;;12.42;82.04;100936.03;10377634;28;20060;-66
2023/11/08 00:31:10;;;;;;;1999.90;999.90;;;;;;;12.13;83.26;100934.38;10375595;28;20493;-65
2023/11/08 00:36:13;;;;;;;1999.90;999.90;;;;;;;11.86;84.99;100951.66;10376575;28;20405;-66
2023/11/08 00:41:15;;;;;;;1999.90;999.90;;;;;;;12.23;83.11;100946.84;10375247;28;20386;-66
2023/11/08 00:46:18;;;;;;;1999.90;999.90;;;;;;;12.10;85.20;100956.41;10375952;28;20056;-65
2023/11/08 00:51:21;;;;;;;1999.90;999.90;;;;;;;12.14;84.32;100951.78;10358478;28;20062;-66
2023/11/08 00:56:23;;;;;;;1999.90;999.90;;;;;;;12.96;81.95;100963.28;10376533;28;20128;-65
2023/11/08 01:01:27;;;;;;;1999.90;999.90;;;;;;;12.44;84.33;100954.34;10376312;28;20129;-66
2023/11/08 01:06:29;;;;;;;1999.90;999.90;;;;;;;12.49;84.33;100954.03;10375435;28;20046;-65
2023/11/08 01:11:32;;;;;;;1999.90;999.90;;;;;;;12.22;86.75;100975.78;10375954;28;20058;-65
2023/11/08 01:16:35;;;;;;;1999.90;999.90;;;;;;;12.53;84.13;100977.38;10375771;28;20084;-66
2023/11/08 01:21:37;;;;;;;1999.90;999.90;;;;;;;12.69;83.89;100971.97;10375656;28;20100;-66
2023/11/08 01:26:39;;;;;;;1999.90;999.90;;;;;;;12.49;83.21;100985.53;10374723;28;20552;-66
2023/11/08 01:31:43;;;;;;;1999.90;999.90;;;;;;;12.11;86.88;100986.13;10375338;28;20056;-65
2023/11/08 01:36:46;;;;;;;1999.90;999.90;;;;;;;12.87;83.19;100975.22;10374512;28;20050;-66
2023/11/08 01:41:49;;;;;;;1999.90;999.90;;;;;;;11.83;86.58;100996.44;10373930;28;20108;-65
2023/11/08 01:46:55;;;;;;;1999.90;999.90;;;;;;;12.39;85.90;100982.63;10373134;28;20499;-65
2023/11/08 01:51:59;;;;;;;1999.90;999.90;;;;;;;12.45;84.56;100987.50;10374775;28;20064;-66
2023/11/08 01:57:02;;;;;;;1999.90;999.90;;;;;;;12.66;82.64;100992.34;10375268;28;20046;-65
2023/11/08 02:02:04;;;;;;;1999.90;999.90;;;;;;;12.58;82.89;100991.06;10382027;28;20054;-65
2023/11/08 02:07:07;;;;;;;1999.90;999.90;;;;;;;12.15;85.84;101001.56;10381170;28;20133;-66
2023/11/08 02:12:09;;;;;;;1999.90;999.90;;;;;;;12.22;84.62;100997.66;10382199;28;20501;-65
2023/11/08 02:17:12;;;;;;;1999.90;999.90;;;;;;;12.50;84.06;100995.13;10380810;28;20132;-65
2023/11/08 02:22:15;;;;;;;1999.90;999.90;;;;;;;12.17;86.92;100998.84;10382446;28;20056;-66
2023/11/08 02:27:17;;;;;;;1999.90;999.90;;;;;;;12.21;84.30;101008.25;10381974;28;20406;-65
2023/11/08 02:32:19;;;;;;;1999.90;999.90;;;;;;;12.32;84.06;101003.16;10381406;28;20477;-66
2023/11/08 02:37:22;;;;;;;1999.90;999.90;;;;;;;13.11;80.57;100995.63;10381200;28;20071;-66
2023/11/08 02:42:24;;;;;;;1999.90;999.90;;;;;;;12.16;83.56;101008.53;10382153;28;20128;-66
2023/11/08 02:47:26;;;;;;;1999.90;999.90;;;;;;;12.74;82.57;100993.56;10381344;28;20129;-65
2023/11/08 02:52:29;;;;;;;1999.90;999.90;;;;;;;12.61;82.23;100990.88;10380624;28;20069;-66
2023/11/08 02:57:31;;;;;;;1999.90;999.90;;;;;;;12.60;83.14;101007.56;10381092;28;20056;-66
2023/11/08 03:02:34;;;;;;;1999.90;999.90;;;;;;;12.34;84.88;101014.44;10380858;28;20079;-65
2023/11/08 03:07:36;;;;;;;1999.90;999.90;;;;;;;12.70;82.77;101004.38;10410502;22;20085;-65
2023/11/08 03:12:39;;;;;;;1999.90;999.90;;;;;;;12.03;87.63;101016.28;10421470;28;20060;-65
2023/11/08 03:17:43;;;;;;;1999.90;999.90;;;;;;;12.67;85.34;101012.44;10404510;28;20045;-65
2023/11/08 03:22:46;;;;;;;1999.90;999.90;;;;;;;12.31;85.05;101022.50;10403604;28;20045;-66
2023/11/08 03:27:49;;;;;;;1999.90;999.90;;;;;;;12.77;82.87;101024.06;10421238;28;20045;-65
2023/11/08 03:32:54;;;;;;;1999.90;999.90;;;;;;;12.63;82.77;101025.75;10420691;28;20099;-66
2023/11/08 03:37:56;;;;;;;1999.90;999.90;;;;;;;12.06;85.50;101031.00;10420530;28;20046;-66
2023/11/08 03:42:59;;;;;;;1999.90;999.90;;;;;;;12.20;85.49;101025.75;10420187;28;20053;-66
2023/11/08 03:48:01;;;;;;;1999.90;999.90;;;;;;;12.12;82.67;101037.66;10420056;28;20061;-65
2023/11/08 03:53:03;;;;;;;1999.90;999.90;;;;;;;12.65;82.60;101017.78;10402345;28;20050;-65
2023/11/08 03:58:06;;;;;;;1999.90;999.90;;;;;;;12.77;82.09;101010.91;10419676;28;20046;-65
2023/11/08 04:03:08;;;;;;;1999.90;999.90;;;;;;;12.27;83.48;101023.59;10402008;28;20065;-65
2023/11/08 04:08:10;;;;;;;1999.90;999.90;;;;;;;12.09;83.85;101017.72;10418798;28;20488;-65
2023/11/08 04:13:13;;;;;;;1999.90;999.90;;;;;;;11.98;84.30;101030.63;10418503;28;20695;-65
2023/11/08 04:18:15;;;;;;;1999.90;999.90;;;;;;;12.42;83.88;101025.31;10418868;28;20045;-65
2023/11/08 04:23:17;;;;;;;1999.90;999.90;;;;;;;11.89;85.93;101027.56;10400654;28;20104;-65
2023/11/08 04:28:20;;;;;;;1999.90;999.90;;;;;;;12.14;85.26;101033.16;10418359;28;20064;-65
2023/11/08 04:33:22;;;;;;;1999.90;999.90;;;;;;;12.20;81.66;101043.31;10418251;28;20049;-65
2023/11/08 04:38:25;;;;;;;1999.90;999.90;;;;;;;11.51;86.66;101048.16;10417457;28;20550;-65
2023/11/08 04:43:29;;;;;;;1999.90;999.90;;;;;;;11.80;86.97;101045.63;10417883;28;20049;-65
2023/11/08 04:48:31;;;;;;;1999.90;999.90;;;;;;;11.71;85.68;101044.41;10417617;28;20046;-65
2023/11/08 04:53:33;;;;;;;1999.90;999.90;;;;;;;12.07;85.25;101040.59;10417991;28;20076;-65
2023/11/08 04:58:36;;;;;;;1999.90;999.90;;;;;;;11.85;84.08;101043.59;10416683;28;20129;-65
2023/11/08 05:03:38;;;;;;;1999.90;999.90;;;;;;;11.61;84.58;101044.09;10417245;28;20148;-66
2023/11/08 05:08:41;;;;;;;1999.90;999.90;;;;;;;11.43;87.86;101048.63;10416153;28;20451;-65
2023/11/08 05:13:43;;;;;;;1999.90;999.90;;;;;;;12.01;83.37;101039.16;10416823;28;20061;-66
2023/11/08 05:18:46;;;;;;;1999.90;999.90;;;;;;;11.71;85.66;101045.22;10416713;28;20045;-65
2023/11/08 05:23:48;;;;;;;1999.90;999.90;;;;;;;11.82;82.33;101036.75;10416508;28;20050;-65
2023/11/08 05:28:50;;;;;;;1999.90;999.90;;;;;;;11.59;84.63;101040.72;10416335;28;20046;-65
2023/11/08 05:33:53;;;;;;;1999.90;999.90;;;;;;;11.83;84.81;101040.22;10415799;28;20107;-65
2023/11/08 05:38:58;;;;;;;1999.90;999.90;;;;;;;11.60;85.26;101039.78;10416042;28;20052;-65
2023/11/08 05:44:01;;;;;;;1999.90;999.90;;;;;;;11.29;86.11;101049.38;10398448;28;20216;-66
2023/11/08 05:49:03;;;;;;;1999.90;999.90;;;;;;;11.31;85.08;101049.31;10415695;28;20083;-66
2023/11/08 05:54:06;;;;;;;1999.90;999.90;;;;;;;11.51;85.20;101056.03;10415677;28;20051;-65
2023/11/08 05:59:08;;;;;;;1999.90;999.90;;;;;;;11.42;85.75;101060.03;10415592;28;20099;-65
2023/11/08 06:04:12;;;;;;;1999.90;999.90;;;;;;;11.18;88.92;101067.50;10415548;28;20128;-65
2023/11/08 06:09:15;;;;;;;1999.90;999.90;;;;;;;10.84;89.16;101056.25;10415106;28;20072;-65
2023/11/08 06:14:17;;;;;;;1999.90;999.90;;;;;;;11.61;84.18;101062.44;10397215;28;20572;-65
2023/11/08 06:19:20;;;;;;;1999.90;999.90;;;;;;;11.49;85.31;101055.28;10398533;28;20091;-65
2023/11/08 06:24:25;;;;;;;1999.90;999.90;;;;;;;11.50;84.90;101057.81;10414541;28;20408;-66
2023/11/08 06:29:28;;;;;;;1999.90;999.90;;;;;;;11.73;83.20;101065.28;10414942;28;20110;-65
2023/11/08 06:34:30;;;;;;;1999.90;999.90;;;;;;;11.36;84.94;101052.50;10398048;28;20132;-66
2023/11/08 06:39:32;;;;;;;1999.90;999.90;;;;;;;11.52;84.88;101073.47;10380502;28;20041;-65
2023/11/08 06:44:35;;;;;;;1999.90;999.90;;;;;;;11.57;85.07;101067.97;10400790;28;20057;-66
2023/11/08 06:49:37;;;;;;;1999.90;999.90;;;;;;;11.01;86.80;101070.19;10421684;28;20377;-65
2023/11/08 06:54:41;;;;;;;1999.90;999.90;;;;;;;11.47;85.57;101070.25;10421599;28;20488;-65
2023/11/08 06:59:45;;;;;;;1999.90;999.90;;;;;;;11.73;83.57;101081.03;10404544;28;20488;-65
2023/11/08 07:04:47;;;;;;;1999.90;999.90;;;;;;;11.81;82.68;101079.66;10403701;28;20389;-65
2023/11/08 07:09:50;;;;;;;1999.90;999.90;;;;;;;11.59;83.91;101087.06;10420769;28;20511;-65
2023/11/08 07:14:52;;;;;;;1999.90;999.90;;;;;;;11.33;83.84;101089.38;10421458;28;20060;-65
2023/11/08 07:19:54;;;;;;;1999.90;999.90;;;;;;;11.80;83.02;101090.22;10403688;28;20128;-65
2023/11/08 07:24:57;;;;;;;1999.90;999.90;;;;;;;11.31;84.19;101086.00;10421062;28;20049;-65
2023/11/08 07:29:59;;;;;;;1999.90;999.90;;;;;;;11.58;82.71;101088.84;10420760;28;20103;-65
2023/11/08 07:35:01;;;;;;;1999.90;999.90;;;;;;;11.55;83.02;101088.16;10420675;28;20046;-65
2023/11/08 07:40:06;;;;;;;1999.90;999.90;;;;;;;11.58;83.13;101082.75;10419827;28;20116;-65
2023/11/08 07:45:09;;;;;;;1999.90;999.90;;;;;;;11.87;81.22;101091.59;10419648;28;20485;-65
2023/11/08 07:50:12;;;;;;;1999.90;999.90;;;;;;;11.71;81.52;101091.59;10419303;28;20045;-65
2023/11/08 07:55:14;;;;;;;1999.90;999.90;;;;;;;11.69;81.12;101090.84;10400919;28;20463;-65
2023/11/08 08:00:22;;;;;;;1999.90;999.90;;;;;;;11.67;83.10;101098.81;10419675;28;20049;-65
2023/11/08 08:05:24;;;;;;;1999.90;999.90;;;;;;;12.25;80.92;101102.50;10418664;28;20510;-66
2023/11/08 08:10:31;;;;;;;1999.90;999.90;;;;;;;12.38;79.70;101099.13;10419056;28;20077;-66
2023/11/08 08:15:34;;;;;;;1999.90;999.90;;;;;;;12.49;78.91;101090.56;10417947;28;20064;-66
2023/11/08 08:20:37;;;;;;;1999.90;999.90;;;;;;;14.15;73.64;101090.50;10418191;28;20045;-66
2023/11/08 08:25:40;;;;;;;1999.90;999.90;;;;;;;13.71;74.54;101102.22;10401727;28;20061;-66
2023/11/08 08:30:42;;;;;;;1999.90;999.90;;;;;;;14.05;70.84;101089.44;10417737;28;20132;-66
2023/11/08 08:35:45;;;;;;;1999.90;999.90;;;;;;;13.60;72.61;101099.41;10418238;28;20057;-66
2023/11/08 08:40:49;;;;;;;1999.90;999.90;;;;;;;14.49;74.53;101081.13;10418068;28;20050;-66
2023/11/08 08:45:51;;;;;;;1999.90;999.90;;;;;;;15.63;69.62;101082.69;10417921;28;20045;-66
2023/11/08 08:50:54;;;;;;;1999.90;999.90;;;;;;;13.89;71.42;101090.47;10416988;28;20049;-66
2023/11/08 08:55:56;;;;;;;1999.90;999.90;;;;;;;13.51;75.24;101096.44;10416836;28;20053;-66
2023/11/08 09:00:59;;;;;;;1999.90;999.90;;;;;;;15.02;70.68;101088.84;10416180;28;20055;-66
2023/11/08 09:06:02;;;;;;;1999.90;999.90;;;;;;;16.60;67.16;101093.88;10416849;28;20057;-66
2023/11/08 09:11:04;;;;;;;1999.90;999.90;;;;;;;16.81;63.60;101087.84;10416277;28;20100;-66
2023/11/08 09:16:07;;;;;;;1999.90;999.90;;;;;;;15.44;67.58;101087.69;10415595;28;20124;-67
2023/11/08 09:21:09;;;;;;;1999.90;999.90;;;;;;;17.75;61.75;101080.28;10417168;28;20044;-66
2023/11/08 09:26:12;;;;;;;1999.90;999.90;;;;;;;19.14;58.80;101079.06;10398298;28;20045;-66
2023/11/08 09:31:16;;;;;;;1999.90;999.90;;;;;;;16.81;60.76;101077.28;10416192;28;20139;-67
2023/11/08 09:36:21;;;;;;;1999.90;999.90;;;;;;;17.76;62.06;101080.16;10415466;28;20128;-66
2023/11/08 09:41:24;;;;;;;1999.90;999.90;;;;;;;18.95;57.75;101064.78;10415882;28;20489;-66
2023/11/08 09:46:27;;;;;;;1999.90;999.90;;;;;;;20.46;55.62;101074.03;10415899;28;20049;-66
2023/11/08 09:51:30;;;;;;;1999.90;999.90;;;;;;;19.81;53.58;101085.41;10415717;28;20042;-68
2023/11/08 09:56:33;;;;;;;1999.90;999.90;;;;;;;20.66;51.87;101057.06;10415089;28;20481;-67
2023/11/08 10:01:37;;;;;;;1999.90;999.90;;;;;;;18.59;56.71;101052.91;10398034;28;20051;-67
2023/11/08 10:06:41;;;;;;;1999.90;999.90;;;;;;;18.83;56.43;101066.69;10397371;28;20057;-67
2023/11/08 10:11:43;;;;;;;1999.90;999.90;;;;;;;17.99;57.99;101058.91;10415328;28;20049;-66
2023/11/08 10:16:47;;;;;;;1999.90;999.90;;;;;;;18.51;56.08;101054.41;10397182;28;20055;-66
2023/11/08 10:21:58;;;;;;;1999.90;999.90;;;;;;;16.96;59.90;101054.91;10405296;28;20049;-66
2023/11/08 10:27:11;;;;;;;1999.90;999.90;;;;;;;16.19;62.92;101052.16;10423333;28;20133;-66
2023/11/08 10:32:23;;;;;;;1999.90;999.90;;;;;;;17.18;60.82;101046.13;10406209;28;20045;-66
2023/11/08 10:37:27;;;;;;;1999.90;999.90;;;;;;;15.98;62.72;101039.66;10405034;28;20140;-66
2023/11/08 10:42:30;;;;;;;1999.90;999.90;;;;;;;16.55;60.43;101029.97;10422153;28;20453;-66
2023/11/08 10:47:34;;;;;;;1999.90;999.90;;;;;;;15.64;62.88;101022.88;10405187;28;20053;-66
2023/11/08 10:52:37;;;;;;;1999.90;999.90;;;;;;;16.16;62.60;101018.91;10421644;28;20045;-66
2023/11/08 10:57:42;;;;;;;1999.90;999.90;;;;;;;16.22;64.32;101010.50;10422152;28;20095;-66
2023/11/08 11:02:57;;;;;;;1999.90;999.90;;;;;;;15.73;63.60;101006.31;10403885;28;20054;-66
2023/11/08 11:08:01;;;;;;;1999.90;999.90;;;;;;;14.94;66.19;101011.28;10403596;28;20069;-65
2023/11/08 11:13:03;;;;;;;1999.90;999.90;;;;;;;15.82;65.32;101010.09;10404027;28;20056;-66
2023/11/08 11:18:16;;;;;;;1999.90;999.90;;;;;;;15.83;64.75;101002.06;10420725;28;20484;-66
2023/11/08 11:23:41;;;;;;;1999.90;999.90;;;;;;;15.97;64.22;100985.16;10403706;28;20050;-66
2023/11/08 11:28:54;;;;;;;1999.90;999.90;;;;;;;16.25;62.43;100980.38;10420862;28;20397;-66
2023/11/08 11:33:57;;;;;;;1999.90;999.90;;;;;;;16.15;62.27;100980.25;10402628;28;20475;-66
2023/11/08 11:39:22;;;;;;;1999.90;999.90;;;;;;;16.06;63.32;100965.13;10402988;28;20095;-66
2023/11/08 11:44:51;;;;;;;1999.90;999.90;;;;;;;16.38;61.32;100969.69;10420463;28;20076;-66
2023/11/08 11:50:01;;;;;;;1999.90;999.90;;;;;;;16.09;62.83;100973.66;10393135;28;20124;-66
2023/11/08 11:55:06;;;;;;;1999.90;999.90;;;;;;;15.47;64.00;100964.28;10419404;28;20080;-66
2023/11/08 12:00:12;;;;;;;1999.90;999.90;;;;;;;16.38;63.32;100956.47;10419714;28;20076;-66
2023/11/08 12:05:15;;;;;;;1999.90;999.90;;;;;;;16.70;61.57;100960.00;10419402;28;20054;-66
2023/11/08 12:10:20;;;;;;;1999.90;999.90;;;;;;;15.73;62.72;100951.72;10401774;28;20042;-66
2023/11/08 12:15:23;;;;;;;1999.90;999.90;;;;;;;15.57;62.96;100933.59;10401936;28;20085;-67
2023/11/08 12:20:29;;;;;;;1999.90;999.90;;;;;;;15.62;63.14;100930.59;10418992;28;20124;-66
2023/11/08 12:25:32;;;;;;;1999.90;999.90;;;;;;;16.02;63.53;100929.34;10401708;28;20479;-66
2023/11/08 12:30:36;;;;;;;1999.90;999.90;;;;;;;15.49;63.71;100920.13;10401181;28;20048;-66
2023/11/08 12:35:39;;;;;;;1999.90;999.90;;;;;;;16.40;62.61;100907.81;10418374;28;20149;-66
2023/11/08 12:40:41;;;;;;;1999.90;999.90;;;;;;;15.90;63.90;100902.97;10417710;28;20052;-66
2023/11/08 12:45:44;;;;;;;1999.90;999.90;;;;;;;15.92;63.49;100898.38;10417949;28;20049;-66
2023/11/08 12:51:11;;;;;;;1999.90;999.90;;;;;;;15.76;63.93;100900.53;10417053;28;20489;-66
2023/11/08 12:56:13;;;;;;;1999.90;999.90;;;;;;;15.95;64.88;100898.16;10399942;28;20485;-66
2023/11/08 13:01:19;;;;;;;1999.90;999.90;;;;;;;15.84;63.88;100892.03;10416694;28;20522;-66
2023/11/08 13:06:22;;;;;;;1999.90;999.90;;;;;;;15.09;64.08;100899.41;10399020;28;20061;-66
2023/11/08 13:11:24;;;;;;;1999.90;999.90;;;;;;;15.54;66.93;100888.97;10399317;28;20080;-66
2023/11/08 13:16:27;;;;;;;1999.90;999.90;;;;;;;14.78;66.40;100888.50;10416701;28;20061;-66
2023/11/08 13:21:29;;;;;;;1999.90;999.90;;;;;;;14.89;65.32;100886.88;10399133;28;20053;-66
2023/11/08 13:26:32;;;;;;;1999.90;999.90;;;;;;;15.11;66.85;100870.28;10416353;28;20091;-66
2023/11/08 13:31:37;;;;;;;1999.90;999.90;;;;;;;15.09;67.58;100861.66;10415593;28;20516;-66
2023/11/08 13:36:39;;;;;;;1999.90;999.90;;;;;;;15.23;68.05;100848.25;10416769;28;20053;-66
2023/11/08 13:41:42;;;;;;;1999.90;999.90;;;;;;;14.32;66.69;100852.31;10416033;28;20049;-66
2023/11/08 13:46:44;;;;;;;1999.90;999.90;;;;;;;14.90;68.18;100852.50;10415463;28;20059;-66
2023/11/08 13:51:47;;;;;;;1999.90;999.90;;;;;;;14.88;67.74;100828.06;10398144;28;20510;-66
2023/11/08 13:56:49;;;;;;;1999.90;999.90;;;;;;;15.26;67.46;100816.38;10414892;28;20049;-66
2023/11/08 14:01:53;;;;;;;1999.90;999.90;;;;;;;15.15;66.58;100814.56;10415671;28;20041;-66
2023/11/08 14:06:56;;;;;;;1999.90;999.90;;;;;;;14.84;66.79;100810.75;10414979;28;20530;-66
2023/11/08 14:11:58;;;;;;;1999.90;999.90;;;;;;;14.56;69.15;100804.03;10415374;28;20049;-66
2023/11/08 14:17:00;;;;;;;1999.90;999.90;;;;;;;14.69;68.75;100794.31;10415382;28;20064;-66
2023/11/08 14:22:03;;;;;;;1999.90;999.90;;;;;;;14.51;67.86;100778.06;10415276;28;20069;-66
2023/11/08 14:27:06;;;;;;;1999.90;999.90;;;;;;;14.42;69.55;100770.81;10414550;28;20476;-66
2023/11/08 14:32:09;;;;;;;1999.90;999.90;;;;;;;14.22;69.09;100765.25;10414937;28;20046;-66
2023/11/08 14:37:13;;;;;;;1999.90;999.90;;;;;;;14.48;71.04;100757.22;10414971;28;20056;-66
2023/11/08 14:42:15;;;;;;;1999.90;999.90;;;;;;;14.55;72.05;100729.44;10397592;28;20045;-65
2023/11/08 14:47:20;;;;;;;1999.90;999.90;;;;;;;14.02;71.73;100729.00;10414820;28;20050;-66
2023/11/08 14:52:23;;;;;;;1999.90;999.90;;;;;;;14.00;72.16;100723.00;10396772;28;20072;-66
2023/11/08 14:57:25;;;;;;;1999.90;999.90;;;;;;;13.97;72.73;100708.28;10397102;28;20053;-65
2023/11/08 15:02:31;;;;;;;1999.90;999.90;;;;;;;14.18;72.52;100699.75;10414945;28;20084;-66
2023/11/08 15:07:33;;;;;;;1999.90;999.90;;;;;;;13.94;74.14;100693.53;10419600;28;20440;-66
2023/11/08 15:12:56;;;;;;;1999.90;999.90;;;;;;;14.39;72.33;100692.91;10406937;28;20103;-65
2023/11/08 15:17:59;;;;;;;1999.90;999.90;;;;;;;13.60;73.60;100687.28;10403284;28;20053;-65
2023/11/08 15:23:01;;;;;;;1999.90;999.90;;;;;;;13.98;74.22;100678.38;10386652;23;20050;-62
2023/11/08 15:28:04;;;;;;;1999.90;999.90;;;;;;;13.16;73.14;100660.53;10379061;28;20054;-62
2023/11/08 15:33:06;;;;;;;1999.90;999.90;;;;;;;13.53;74.40;100657.94;10379922;28;20046;-62
2023/11/08 15:38:08;;;;;;;1999.90;999.90;;;;;;;13.60;73.35;100639.06;10379614;28;20206;-62
2023/11/08 15:43:15;;;;;;;1999.90;999.90;;;;;;;13.79;75.36;100633.31;10379553;28;20052;-62
2023/11/08 15:48:17;;;;;;;1999.90;999.90;;;;;;;13.72;75.35;100638.19;10379437;28;20126;-62
2023/11/08 15:53:20;;;;;;;1999.90;999.90;;;;;;;13.59;76.14;100629.50;10378484;28;20548;-62
2023/11/08 15:58:22;;;;;;;1999.90;999.90;;;;;;;13.02;80.38;100624.69;10378849;28;20544;-62
2023/11/08 16:03:25;;;;;;;1999.90;999.90;;;;;;;13.51;81.40;100612.47;10378318;28;20085;-62
2023/11/08 16:08:27;;;;;;;1999.90;999.90;;;;;;;12.86;83.17;100597.81;10378428;28;20080;-62
2023/11/08 16:13:30;;;;;;;1999.90;999.90;;;;;;;13.52;83.29;100598.38;10377797;28;20576;-62
2023/11/08 16:18:32;;;;;;;1999.90;999.90;;;;;;;13.35;82.15;100583.00;10377462;28;20049;-62
2023/11/08 16:23:35;;;;;;;1999.90;999.90;;;;;;;12.90;84.70;100578.25;10377360;28;20136;-62
2023/11/08 16:28:37;;;;;;;1999.90;999.90;;;;;;;12.73;84.12;100576.81;10377112;28;20088;-62
2023/11/08 16:33:40;;;;;;;1999.90;999.90;;;;;;;12.96;85.94;100571.72;10376418;28;20050;-63
2023/11/08 16:38:44;;;;;;;1999.90;999.90;;;;;;;12.44;88.44;100577.06;10377376;28;20050;-62
2023/11/08 16:43:46;;;;;;;1999.90;999.90;;;;;;;12.92;89.77;100586.88;10376952;28;20432;-62
2023/11/08 16:48:49;;;;;;;1999.90;999.90;;;;;;;12.91;85.81;100564.19;10376984;28;20057;-62
2023/11/08 16:53:52;;;;;;;1999.90;999.90;;;;;;;12.92;87.03;100576.34;10377014;28;20050;-63
2023/11/08 16:58:59;;;;;;;1999.90;999.90;;;;;;;13.27;87.50;100573.00;10376051;28;20481;-62
2023/11/08 17:04:03;;;;;;;1999.90;999.90;;;;;;;12.56;93.47;100577.16;10376551;28;20054;-63
2023/11/08 17:09:05;;;;;;;1999.90;999.90;;;;;;;12.68;90.57;100557.91;10375731;28;20081;-62
2023/11/08 17:14:08;;;;;;;1999.90;999.90;;;;;;;12.68;92.60;100542.16;10375031;28;20054;-62
2023/11/08 17:19:10;;;;;;;1999.90;999.90;;;;;;;12.74;94.35;100562.75;10376005;28;20048;-63
2023/11/08 17:24:13;;;;;;;1999.90;999.90;;;;;;;12.78;97.32;100564.19;10375225;28;20053;-62
2023/11/08 17:29:18;;;;;;;1999.90;999.90;;;;;;;12.35;99.31;100555.84;10374956;28;20485;-62
2023/11/08 17:34:21;;;;;;;1999.90;999.90;;;;;;;12.83;93.39;100548.94;10375479;28;20052;-62
2023/11/08 17:39:24;;;;;;;1999.90;999.90;;;;;;;12.55;99.20;100546.59;10375407;28;20092;-62
2023/11/08 17:44:28;;;;;;;1999.90;999.90;;;;;;;12.81;96.09;100556.09;10373467;28;20405;-62
2023/11/08 17:49:30;;;;;;;1999.90;999.90;;;;;;;12.81;94.68;100542.13;10375000;28;20073;-62
2023/11/08 17:54:33;;;;;;;1999.90;999.90;;;;;;;12.87;95.03;100532.97;10374300;28;20042;-63
2023/11/08 17:59:40;;;;;;;1999.90;999.90;;;;;;;12.59;98.29;100532.28;10374292;28;20397;-62
2023/11/08 18:04:44;;;;;;;1999.90;999.90;;;;;;;12.97;96.62;100529.56;10373092;28;20410;-62
2023/11/08 18:09:46;;;;;;;1999.90;999.90;;;;;;;12.90;98.15;100530.97;10374578;28;20128;-62
2023/11/08 18:14:49;;;;;;;1999.90;999.90;;;;;;;13.15;96.48;100526.56;10375109;28;20046;-62
2023/11/08 18:19:52;;;;;;;1999.90;999.90;;;;;;;12.74;99.07;100519.84;10374454;28;20070;-62
2023/11/08 18:24:54;;;;;;;1999.90;999.90;;;;;;;13.14;97.72;100511.75;10373699;28;20472;-62
2023/11/08 18:29:57;;;;;;;1999.90;999.90;;;;;;;12.86;99.19;100505.00;10373073;28;20046;-62
2023/11/08 18:34:59;;;;;;;1999.90;999.90;;;;;;;13.12;96.11;100495.25;10373599;28;20432;-62
2023/11/08 18:40:05;;;;;;;1999.90;999.90;;;;;;;12.92;96.54;100484.38;10376137;28;20050;-62
2023/11/08 18:45:08;;;;;;;1999.90;999.90;;;;;;;12.63;99.08;100484.69;10381265;28;20517;-62
2023/11/08 18:50:13;;;;;;;1999.90;999.90;;;;;;;13.48;99.80;100469.84;10380899;28;20046;-63
2023/11/08 18:55:15;;;;;;;1999.90;999.90;;;;;;;12.68;100.00;100471.25;10381482;28;20053;-62
2023/11/08 19:00:18;;;;;;;1999.90;999.90;;;;;;;12.68;100.00;100465.97;10380619;28;20417;-62
2023/11/08 19:05:21;;;;;;;1999.90;999.90;;;;;;;13.50;98.00;100462.66;10379955;28;20054;-61
2023/11/08 19:10:24;;;;;;;1999.90;999.90;;;;;;;13.20;97.36;100461.38;10380350;28;20483;-62
2023/11/08 19:15:26;;;;;;;1999.90;999.90;;;;;;;13.18;98.42;100452.75;10380128;28;20315;-62
2023/11/08 19:20:29;;;;;;;1999.90;999.90;;;;;;;13.06;99.59;100451.84;10379078;28;20158;-62
2023/11/08 19:25:31;;;;;;;1999.90;999.90;;;;;;;12.78;100.00;100440.72;10380409;28;20046;-62
2023/11/08 19:30:33;;;;;;;1999.90;999.90;;;;;;;12.52;100.00;100450.47;10380071;28;20049;-63
2023/11/08 19:35:37;;;;;;;1999.90;999.90;;;;;;;13.23;100.00;100431.38;10379971;28;20053;-63
2023/11/08 19:40:40;;;;;;;1999.90;999.90;;;;;;;12.82;100.00;100436.09;10378658;28;20092;-63
2023/11/08 19:45:42;;;;;;;1999.90;999.90;;;;;;;13.22;100.00;100420.03;10378904;28;20053;-62
2023/11/08 19:50:45;;;;;;;1999.90;999.90;;;;;;;13.20;100.00;100409.63;10378007;28;20385;-63
2023/11/08 19:55:48;;;;;;;1999.90;999.90;;;;;;;13.60;100.00;100415.47;10377966;28;20053;-62
2023/11/08 20:00:50;;;;;;;1999.90;999.90;;;;;;;13.19;97.83;100407.94;10379010;28;20081;-64
2023/11/08 20:05:53;;;;;;;1999.90;999.90;;;;;;;13.57;99.46;100406.88;10378737;28;20057;-62
2023/11/08 20:10:55;;;;;;;1999.90;999.90;;;;;;;13.44;100.00;100398.25;10377337;28;20129;-63
2023/11/08 20:15:58;;;;;;;1999.90;999.90;;;;;;;13.16;98.77;100397.66;10377718;28;20089;-62
2023/11/08 20:21:00;;;;;;;1999.90;999.90;;;;;;;13.82;99.52;100393.63;10377328;28;20085;-62
2023/11/08 20:26:03;;;;;;;1999.90;999.90;;;;;;;13.24;100.00;100376.03;10377299;28;20077;-62
2023/11/08 20:31:06;;;;;;;1999.90;999.90;;;;;;;13.83;100.00;100382.16;10377701;28;20049;-62
2023/11/08 20:36:08;;;;;;;1999.90;999.90;;;;;;;13.56;100.00;100373.63;10378152;28;20097;-62
2023/11/08 20:41:13;;;;;;;1999.90;999.90;;;;;;;13.41;100.00;100366.91;10377347;28;20050;-62
2023/11/08 20:46:17;;;;;;;1999.90;999.90;;;;;;;13.50;100.00;100360.97;10377173;28;20049;-62
2023/11/08 20:51:19;;;;;;;1999.90;999.90;;;;;;;13.55;100.00;100355.34;10376301;28;20089;-62
2023/11/08 20:56:22;;;;;;;1999.90;999.90;;;;;;;13.68;100.00;100356.06;10375619;28;20084;-62
2023/11/08 21:01:25;;;;;;;1999.90;999.90;;;;;;;13.41;100.00;100350.31;10376010;28;20481;-63
2023/11/08 21:06:27;;;;;;;1999.90;999.90;;;;;;;13.81;100.00;100340.16;10375625;28;20081;-62
2023/11/08 21:11:30;;;;;;;1999.90;999.90;;;;;;;13.39;100.00;100329.38;10375626;28;20481;-62
2023/11/08 21:16:32;;;;;;;1999.90;999.90;;;;;;;13.93;98.55;100320.78;10374946;28;20133;-63
2023/11/08 21:21:35;;;;;;;1999.90;999.90;;;;;;;13.76;98.65;100313.38;10375275;28;20081;-62
2023/11/08 21:26:37;;;;;;;1999.90;999.90;;;;;;;13.86;100.00;100311.69;10375169;28;20129;-62
2023/11/08 21:31:41;;;;;;;1999.90;999.90;;;;;;;14.00;99.33;100302.69;10375526;28;20042;-62
2023/11/08 21:36:44;;;;;;;1999.90;999.90;;;;;;;13.62;96.53;100297.84;10376010;28;20129;-63
2023/11/08 21:41:46;;;;;;;1999.90;999.90;;;;;;;13.58;100.00;100294.59;10375311;28;20081;-63
2023/11/08 21:46:49;;;;;;;1999.90;999.90;;;;;;;13.30;100.00;100285.38;10375102;28;20418;-62
2023/11/08 21:51:51;;;;;;;1999.90;999.90;;;;;;;14.09;98.89;100273.03;10374334;28;20397;-62
2023/11/08 21:56:53;;;;;;;1999.90;999.90;;;;;;;13.82;97.52;100278.69;10375168;28;20050;-63